Latest Weather Observations for Pirlangimpi

IDD60801

Issued at 11:05 pm CST Sunday 20 April 2014 (issued every 30 minutes, with the page automatically refreshed every 10 minutes)

About weather observations | Map of weather stations | Latest weather observations for NT | Other Formats
Station Details ID: 014142 Name: PIRLANGIMPI AIRPORT Lat: -11.40 Lon: 130.42 Height: 18.3 m
Data from the previous 72 hours. | See also: Recent months at Pirlangimpi
Date/Time
CST
Temp
°C
App
Temp
°C
Dew
Point
Rel
Hum
%
Delta-T
°C
Wind Press
QNH
hPa
Press
MSL
hPa
Rain
since 9 am
mm
Dir
 
Spd
km/h
Gust
km/h
Spd
kts
Gust
kts
20/11:00pm 24.7 29.3 23.1 91 1.1 NE 4 4 2 2 1009.9 - 0.0
20/10:30pm 24.7 29.2 22.9 90 1.2 NE 4 6 2 3 1009.9 1009.8 0.0
20/10:00pm 24.8 29.5 22.7 88 1.4 NE 2 4 1 2 1010.1 - 0.0
20/09:30pm 25.0 29.6 23.1 89 1.3 NE 4 6 2 3 1010.1 1010.0 0.0
20/09:00pm 25.2 30.0 22.9 87 1.6 NE 2 4 1 2 1009.9 1009.8 0.0
20/08:30pm 25.6 30.4 22.9 85 1.8 ENE 2 4 1 2 1010.0 1009.9 0.0
20/08:00pm 26.5 31.2 22.6 79 2.6 ESE 2 4 1 2 1009.6 - 0.0
20/07:30pm 27.3 31.8 22.9 77 3.0 E 4 4 2 2 1009.2 1009.1 0.0
20/07:00pm 28.1 32.6 23.0 74 3.5 ESE 4 6 2 3 1009.0 - 0.0
20/06:30pm 29.0 33.1 23.0 70 4.1 ESE 6 9 3 5 1008.7 1008.6 0.0
20/06:00pm 30.1 33.3 22.3 63 5.3 E 9 15 5 8 1008.5 1008.4 0.0
20/05:30pm 31.6 35.3 22.6 59 6.2 ESE 7 11 4 6 1008.2 1008.1 0.0
20/05:00pm 32.6 35.5 22.4 55 7.0 E 11 19 6 10 1007.8 - 0.0
20/04:30pm 33.0 35.9 22.4 53 7.3 E 11 17 6 9 1007.4 1007.3 0.0
20/04:00pm 33.6 36.6 22.7 53 7.5 E 11 20 6 11 1007.2 - 0.0
20/03:30pm 33.7 37.3 23.1 54 7.3 ESE 9 19 5 10 1007.2 1007.1 0.0
20/03:00pm 33.6 36.8 23.0 54 7.3 SE 11 20 6 11 1007.4 1007.3 0.0
20/02:30pm 33.6 37.1 23.6 56 7.0 E 11 15 6 8 1007.6 1007.5 0.0
20/02:00pm 33.5 36.6 23.5 55 7.0 ESE 13 20 7 11 1007.9 - 0.0
20/01:30pm 33.3 37.2 24.2 59 6.4 SE 11 19 6 10 1008.3 1008.2 0.0
20/01:00pm 32.0 35.4 23.3 60 6.0 ESE 11 20 6 11 1008.8 - 0.0
20/12:30pm 33.3 37.3 25.0 61 5.9 E 13 24 7 13 1008.9 1008.8 0.0
20/12:00pm 32.7 36.0 23.9 60 6.1 E 13 24 7 13 1009.4 1009.3 0.0
20/11:30am 31.7 34.4 23.5 62 5.7 E 15 22 8 12 1009.8 1009.7 0.0
20/11:00am 31.4 34.5 23.5 63 5.5 E 13 20 7 11 1010.3 - 0.0
20/10:30am 30.7 34.5 24.1 68 4.6 E 11 20 6 11 1010.6 1010.5 0.0
20/10:00am 30.0 34.4 24.4 72 3.9 E 9 17 5 9 1010.7 - 0.0
20/09:30am 29.0 33.5 24.6 77 3.1 E 9 15 5 8 1010.6 1010.5 0.0
20/09:00am 27.4 32.2 24.1 82 2.3 SSE 6 11 3 6 1010.3 1010.2 0.4
20/08:30am 25.6 30.0 23.8 90 1.2 SE 7 13 4 7 1010.3 1010.2 0.4
20/08:00am 24.6 28.9 23.6 94 0.7 SE 7 11 4 6 1010.1 - 0.4
20/07:30am 23.7 27.8 23.0 96 0.5 SE 6 7 3 4 1009.9 1009.8 0.4
20/07:00am 23.4 28.1 22.6 95 0.5 SSE 2 6 1 3 1009.5 - 0.4
20/06:30am 23.4 28.1 22.6 95 0.5 ESE 2 4 1 2 1009.3 1009.2 0.4
20/06:00am 23.3 28.2 22.3 94 0.7 CALM 0 0 0 0 1009.2 1009.1 0.4
20/05:30am 23.5 28.5 22.5 94 0.7 CALM 0 0 0 0 1008.9 1008.8 0.4
20/05:00am 23.6 28.3 22.6 94 0.7 SE 2 4 1 2 1008.7 - 0.4
20/04:30am 23.7 28.0 22.7 94 0.7 SE 4 6 2 3 1008.6 1008.5 0.4
20/04:00am 23.9 29.0 22.7 93 0.8 CALM 0 0 0 0 1008.6 - 0.4
20/03:30am 24.2 29.4 22.8 92 0.9 CALM 0 0 0 0 1008.6 1008.5 0.4
20/03:00am 24.5 29.0 22.9 91 1.1 SE 4 7 2 4 1008.4 1008.3 0.4
20/02:30am 24.6 28.7 23.0 91 1.1 ESE 6 7 3 4 1008.5 1008.4 0.4
20/02:00am 24.8 28.9 23.2 91 1.1 E 7 11 4 6 1008.8 - 0.4
20/01:30am 24.9 29.2 23.3 91 1.1 E 6 9 3 5 1009.3 1009.2 0.4
20/01:00am 24.9 28.6 23.3 91 1.1 E 9 13 5 7 1009.5 - 0.4
20/12:30am 25.0 28.4 23.4 91 1.1 E 11 19 6 10 1009.8 1009.7 0.4
20/12:00am 24.9 29.0 23.3 91 1.1 ESE 7 11 4 6 1010.2 1010.1 0.4
 
Date/Time
CST
Temp
°C
App
Temp
°C
Dew
Point
Rel
Hum
%
Delta-T
°C
Wind Press
QNH
hPa
Press
MSL
hPa
Rain
since 9 am
mm
Dir
 
Spd
km/h
Gust
km/h
Spd
kts
Gust
kts
19/11:30pm 25.1 29.2 23.3 90 1.2 ESE 7 13 4 7 1010.5 1010.4 0.2
19/11:00pm 25.3 29.1 23.4 89 1.3 SE 9 13 5 7 1010.8 - 0.2
19/10:30pm 25.4 29.5 23.3 88 1.4 ESE 7 11 4 6 1010.7 1010.6 0.2
19/10:00pm 25.4 29.8 23.5 89 1.3 ESE 6 7 3 4 1010.7 - 0.2
19/09:30pm 25.6 30.1 23.7 89 1.3 ESE 6 7 3 4 1010.5 1010.4 0.2
19/09:00pm 25.9 30.4 23.9 89 1.4 ESE 7 13 4 7 1010.7 1010.6 0.2
19/08:30pm 26.1 29.9 24.0 88 1.4 E 11 19 6 10 1009.9 1009.8 0.2
19/08:00pm 27.5 31.2 24.6 84 2.0 ENE 13 26 7 14 1009.7 - 0.2
19/07:30pm 27.7 32.1 24.5 83 2.2 ENE 9 15 5 8 1009.2 1009.1 0.2
19/07:00pm 28.0 31.1 23.6 77 3.0 ENE 13 20 7 11 1008.8 - 0.2
19/06:30pm 28.7 33.1 24.5 78 2.9 ENE 9 19 5 10 1008.5 1008.4 0.2
19/06:00pm 29.1 33.5 24.4 76 3.3 NE 9 15 5 8 1008.2 1008.1 0.2
19/05:30pm 30.0 34.6 24.2 71 4.0 NE 7 15 4 8 1008.0 1007.9 0.2
19/05:00pm 30.6 34.7 24.0 68 4.6 NE 9 15 5 8 1007.7 - 0.2
19/04:30pm 31.3 34.5 23.7 64 5.3 NE 13 22 7 12 1007.3 1007.2 0.2
19/04:00pm 33.0 36.5 24.2 60 6.2 NE 13 22 7 12 1007.1 - 0.2
19/03:30pm 32.9 36.7 24.1 60 6.2 NE 11 19 6 10 1007.1 1007.0 0.2
19/03:00pm 32.5 36.4 24.3 62 5.8 ENE 11 19 6 10 1007.2 1007.1 0.2
19/02:30pm 33.5 36.4 23.8 57 6.8 ENE 15 26 8 14 1007.5 1007.4 0.2
19/02:00pm 33.3 36.6 23.9 58 6.6 NE 13 26 7 14 1007.9 - 0.2
19/01:30pm 30.9 34.2 23.8 66 4.9 NE 13 22 7 12 1008.4 1008.3 0.2
19/01:00pm 33.2 36.6 24.1 59 6.4 ENE 13 22 7 12 1008.7 - 0.0
19/12:30pm 32.8 36.4 23.7 58 6.3 E 11 20 6 11 1009.3 1009.2 0.0
19/12:00pm 32.7 37.2 25.8 67 4.9 E 13 24 7 13 1009.9 1009.8 0.0
19/11:30am 31.1 34.6 24.2 66 4.8 E 13 19 7 10 1010.4 1010.3 0.0
19/11:00am 31.2 34.4 24.3 66 4.8 E 15 24 8 13 1010.7 - 0.0
19/10:30am 30.9 34.2 24.5 68 4.5 E 15 22 8 12 1010.9 1010.8 0.0
19/10:00am 30.6 35.2 24.7 71 4.1 ESE 9 17 5 9 1011.2 - 0.0
19/09:30am 29.2 33.0 24.7 77 3.1 ESE 13 20 7 11 1011.2 1011.1 0.0
19/09:00am 28.0 32.0 24.4 81 2.5 E 11 19 6 10 1011.0 1010.9 5.2
19/08:30am 26.4 31.0 24.2 88 1.5 ESE 7 17 4 9 1010.9 1010.8 5.2
19/08:00am 25.4 29.5 24.0 92 1.0 ESE 9 15 5 8 1010.7 - 5.2
19/07:30am 24.6 29.1 23.6 94 0.7 ESE 6 11 3 6 1010.6 1010.5 5.2
19/07:00am 24.2 28.5 23.3 95 0.6 E 6 9 3 5 1010.4 - 5.2
19/06:30am 24.2 27.9 23.3 95 0.6 E 9 13 5 7 1010.0 1009.9 5.2
19/06:00am 24.0 28.3 23.3 96 0.5 E 6 7 3 4 1010.1 1010.0 5.2
19/05:30am 23.9 28.9 23.2 96 0.5 ESE 2 6 1 3 1010.0 1009.9 5.2
19/05:00am 24.0 28.7 23.3 96 0.5 SSE 4 6 2 3 1009.9 - 5.2
19/04:30am 24.2 28.9 23.3 95 0.6 ESE 4 6 2 3 1009.7 1009.6 5.2
19/04:00am 24.4 29.2 23.5 95 0.6 SE 4 7 2 4 1009.7 - 5.2
19/03:30am 24.4 28.8 23.5 95 0.6 ESE 6 9 3 5 1009.6 1009.5 5.2
19/03:00am 24.6 29.9 23.7 95 0.6 SE 2 4 1 2 1010.0 1009.9 5.2
19/02:30am 24.7 29.7 23.8 95 0.6 ESE 4 7 2 4 1010.2 1010.1 5.2
19/02:00am 24.7 29.4 24.0 96 0.5 ESE 6 9 3 5 1010.4 - 5.2
19/01:30am 24.6 29.6 23.9 96 0.5 SSE 4 6 2 3 1010.5 1010.4 5.2
19/01:00am 24.7 30.2 24.0 96 0.5 S 2 4 1 2 1011.0 - 5.2
19/12:30am 24.7 29.8 24.0 96 0.5 ESE 4 6 2 3 1011.1 1011.0 5.2
19/12:00am 24.8 29.8 23.9 95 0.6 SSE 4 6 2 3 1011.4 1011.3 5.2
 
Date/Time
CST
Temp
°C
App
Temp
°C
Dew
Point
Rel
Hum
%
Delta-T
°C
Wind Press
QNH
hPa
Press
MSL
hPa
Rain
since 9 am
mm
Dir
 
Spd
km/h
Gust
km/h
Spd
kts
Gust
kts
18/11:30pm 25.0 30.1 24.0 94 0.7 ESE 4 6 2 3 1011.3 1011.2 5.2
18/11:00pm 25.2 30.0 24.2 94 0.7 ESE 6 9 3 5 1011.5 - 5.2
18/10:30pm 25.2 30.2 24.5 96 0.5 ESE 6 9 3 5 1011.5 1011.4 5.2
18/10:00pm 25.2 30.8 24.3 95 0.6 SSE 2 4 1 2 1011.5 - 5.2
18/09:30pm 25.3 31.0 24.4 95 0.6 ESE 2 4 1 2 1011.6 1011.5 5.2
18/09:00pm 25.2 31.2 24.3 95 0.6 CALM 0 0 0 0 1011.6 1011.5 5.2
18/08:30pm 25.2 31.2 24.2 94 0.7 CALM 0 0 0 0 1011.2 1011.1 5.2
18/08:00pm 25.3 31.2 24.1 93 0.8 CALM 0 0 0 0 1010.8 - 5.2
18/07:30pm 25.4 31.4 24.2 93 0.8 CALM 0 0 0 0 1010.7 1010.6 5.2
18/07:00pm 25.9 31.7 24.5 92 1.0 ESE 2 4 1 2 1010.3 - 5.2
18/06:30pm 26.1 32.0 24.7 92 1.0 S 2 6 1 3 1010.2 1010.1 5.2
18/06:00pm 26.3 32.7 24.9 92 1.0 CALM 0 0 0 0 1009.6 1009.5 5.2
18/05:30pm 26.0 31.5 24.6 92 1.0 SE 4 6 2 3 1009.3 1009.2 5.2
18/05:00pm 25.8 31.3 24.6 93 0.8 SE 4 6 2 3 1009.0 - 5.2
18/04:30pm 25.1 30.7 23.5 91 1.1 CALM 0 2 0 1 1008.9 1008.8 5.2
18/04:00pm 24.8 30.4 23.6 93 0.8 CALM 0 0 0 0 1008.8 - 5.2
18/03:30pm 24.6 29.6 23.2 92 1.0 SW 2 9 1 5 1009.0 1008.9 5.2
18/03:00pm 24.9 28.0 22.8 88 1.4 E 11 22 6 12 1009.6 1009.5 3.8
18/02:44pm 26.1 26.6 22.6 81 2.4 E 24 37 13 20 1009.9 - 0.0
18/02:30pm 31.1 35.4 24.2 66 4.8 NNE 9 39 5 21 1009.3 1009.2 0.0
18/02:00pm 31.9 36.7 24.2 63 5.4 NNE 6 13 3 7 1009.0 - 0.0
18/01:30pm 31.5 37.2 24.4 66 5.0 E 2 6 1 3 1009.4 1009.3 0.0
18/01:00pm 31.5 36.3 24.1 65 5.2 ESE 6 9 3 5 1009.8 - 0.0
18/12:30pm 31.3 36.1 24.4 66 4.8 ESE 7 13 4 7 1010.1 1010.0 0.0
18/12:00pm 31.3 36.3 25.4 71 4.2 E 9 15 5 8 1010.7 1010.6 0.0
18/11:30am 30.1 35.4 25.2 75 3.5 E 7 13 4 7 1010.9 1010.8 0.0
18/11:00am 29.5 34.9 25.5 79 2.8 E 7 11 4 6 1011.2 - 0.0
18/10:30am 29.0 34.1 25.0 79 2.8 E 7 11 4 6 1011.3 1011.2 0.0
18/10:00am 28.5 33.8 25.3 83 2.3 SSE 7 11 4 6 1011.5 - 0.0
18/09:30am 27.0 32.6 24.8 88 1.5 SSE 4 4 2 2 1011.5 1011.4 0.0
18/09:00am 26.1 31.6 24.1 89 1.4 SSE 2 6 1 3 1011.5 1011.4 8.8
18/08:30am 25.6 30.7 24.6 94 0.7 ENE 6 7 3 4 1011.4 1011.3 8.8
18/08:00am 24.9 30.4 24.0 95 0.6 SE 2 6 1 3 1011.3 - 8.8
18/07:30am 24.6 28.9 23.7 95 0.6 SE 7 13 4 7 1011.2 1011.1 8.8
18/07:00am 24.7 29.5 24.2 97 0.3 E 6 11 3 6 1010.9 - 8.8
18/06:30am 24.2 29.8 23.5 96 0.5 CALM 0 0 0 0 1010.2 1010.1 8.8
18/06:00am 24.3 29.9 23.6 96 0.5 CALM 0 0 0 0 1010.1 1010.0 8.8
18/05:30am 24.1 29.6 23.4 96 0.5 CALM 0 4 0 2 1009.8 1009.7 8.8
18/05:00am 24.1 29.6 23.4 96 0.5 CALM 0 0 0 0 1009.6 - 8.8
18/04:30am 24.2 29.8 23.5 96 0.5 CALM 0 0 0 0 1009.6 1009.5 8.8
18/04:00am 24.4 30.1 23.7 96 0.5 CALM 0 0 0 0 1009.7 - 8.8
18/03:30am 24.3 29.9 23.6 96 0.5 CALM 0 0 0 0 1009.7 1009.6 8.6
18/03:00am 24.3 29.9 23.6 96 0.5 CALM 0 0 0 0 1010.0 1009.9 8.6
18/02:30am 24.3 29.9 23.6 96 0.5 CALM 0 0 0 0 1010.0 1009.9 8.6
18/02:00am 24.2 29.8 23.5 96 0.5 CALM 0 0 0 0 1010.1 - 8.6
18/01:30am 24.2 29.4 23.5 96 0.5 NE 2 4 1 2 1010.4 1010.3 8.6
18/01:00am 24.0 28.9 23.1 95 0.6 ENE 2 2 1 1 1010.8 - 8.6
18/12:30am 23.9 28.4 23.0 95 0.6 NE 4 6 2 3 1011.1 1011.0 8.6
18/12:00am 24.1 29.5 23.2 95 0.6 CALM 0 0 0 0 1011.3 1011.2 8.6
 
Date/Time
CST
Temp
°C
App
Temp
°C
Dew
Point
Rel
Hum
%
Delta-T
°C
Wind Press
QNH
hPa
Press
MSL
hPa
Rain
since 9 am
mm
Dir
 
Spd
km/h
Gust
km/h
Spd
kts
Gust
kts
17/11:30pm 24.5 30.1 23.5 94 0.7 CALM 0 0 0 0 1011.3 1011.2 8.6

Other Formats:

Comma delimited format used in spreadsheet applications
http://www.bom.gov.au/fwo/IDD60801/IDD60801.94119.axf

JavaScript Object Notation format (JSON) in row-major order
http://www.bom.gov.au/fwo/IDD60801/IDD60801.94119.json